createdAt,value
2023-04-05T00:00:33.811Z,1.90
2023-04-05T00:03:11.809Z,1.80
2023-04-05T00:05:43.448Z,1.80
2023-04-05T00:08:33.304Z,1.70
2023-04-05T00:11:14.307Z,1.60
2023-04-05T00:13:47.922Z,1.50
2023-04-05T00:16:18.927Z,1.50
2023-04-05T00:19:03.318Z,1.40
2023-04-05T00:21:56.576Z,1.40
2023-04-05T00:24:36.503Z,1.20
2023-04-05T00:27:08.323Z,1.10
2023-04-05T00:30:12.852Z,1.10
2023-04-05T00:33:06.048Z,1.10
2023-04-05T00:35:36.654Z,1.20
2023-04-05T00:38:42.903Z,1.30
2023-04-05T00:41:18.755Z,1.30
2023-04-05T00:44:17.676Z,1.30
2023-04-05T00:46:50.309Z,1.40
2023-04-05T00:49:19.589Z,1.50
2023-04-05T00:51:48.486Z,1.50
2023-04-05T00:54:21.170Z,1.50
2023-04-05T00:56:53.156Z,1.40
2023-04-05T00:59:21.562Z,1.40
2023-04-05T01:01:55.382Z,1.40
2023-04-05T01:04:24.123Z,1.40
2023-04-05T01:06:59.616Z,1.40
2023-04-05T01:09:48.036Z,1.30
2023-04-05T01:12:18.424Z,1.30
2023-04-05T01:14:47.261Z,1.20
2023-04-05T01:17:16.651Z,1.20
2023-04-05T01:19:48.427Z,1.20
2023-04-05T01:22:38.832Z,1.10
2023-04-05T01:25:26.363Z,1.00
2023-04-05T01:28:14.051Z,0.90
2023-04-05T01:30:45.932Z,0.80
2023-04-05T01:33:16.748Z,0.80
2023-04-05T01:35:50.044Z,0.70
2023-04-05T01:38:19.737Z,0.70
2023-04-05T01:40:48.697Z,0.70
2023-04-05T01:43:17.304Z,0.60
2023-04-05T01:45:48.090Z,0.60
2023-04-05T01:48:16.361Z,0.50
2023-04-05T01:50:45.173Z,0.50
2023-04-05T01:53:14.289Z,0.40
2023-04-05T01:55:43.298Z,0.40
2023-04-05T01:58:12.069Z,0.30
2023-04-05T02:00:40.454Z,0.30
2023-04-05T02:03:10.211Z,0.30
2023-04-05T02:05:38.451Z,0.20
2023-04-05T02:08:06.965Z,0.20
2023-04-05T02:10:35.806Z,0.10
2023-04-05T02:13:03.893Z,0.10
2023-04-05T02:15:34.460Z,0.10
2023-04-05T02:18:04.063Z,0.10
2023-04-05T02:20:34.665Z,0.00
2023-04-05T02:23:03.253Z,0.00
2023-04-05T02:25:31.898Z,-0.10
2023-04-05T02:28:01.130Z,-0.10
2023-04-05T02:30:29.831Z,-0.20
2023-04-05T02:32:58.222Z,-0.20
2023-04-05T02:35:26.876Z,-0.20
2023-04-05T02:37:57.025Z,-0.30
2023-04-05T02:40:25.517Z,-0.30
2023-04-05T02:42:53.684Z,-0.30
2023-04-05T02:45:21.874Z,-0.40
2023-04-05T02:47:51.289Z,-0.40
2023-04-05T02:50:20.668Z,-0.40
2023-04-05T02:52:49.115Z,-0.40
2023-04-05T02:55:19.915Z,-0.30
2023-04-05T02:57:48.157Z,-0.30
2023-04-05T03:00:30.707Z,-0.30
2023-04-05T03:03:01.403Z,-0.40
2023-04-05T03:05:30.139Z,-0.40
2023-04-05T03:07:59.682Z,-0.40
2023-04-05T03:10:36.336Z,-0.40
2023-04-05T03:13:14.340Z,-0.40
2023-04-05T03:15:43.273Z,-0.40
2023-04-05T03:18:14.997Z,-0.40
2023-04-05T03:20:46.035Z,-0.40
2023-04-05T03:23:19.861Z,-0.40
2023-04-05T03:25:55.729Z,-0.50
2023-04-05T03:28:26.366Z,-0.50
2023-04-05T03:30:58.147Z,-0.50
2023-04-05T03:33:26.794Z,-0.60
2023-04-05T03:35:55.448Z,-0.60
2023-04-05T03:38:23.898Z,-0.60
2023-04-05T03:41:08.699Z,-0.70
2023-04-05T03:43:38.012Z,-0.70
2023-04-05T03:46:07.408Z,-0.70
2023-04-05T03:48:35.551Z,-0.80
2023-04-05T03:51:04.911Z,-0.90
2023-04-05T03:53:32.982Z,-0.90
2023-04-05T03:56:02.038Z,-0.90
2023-04-05T03:58:46.657Z,-0.90
2023-04-05T04:01:16.592Z,-0.90
2023-04-05T04:03:44.605Z,-0.90
2023-04-05T04:06:13.414Z,-0.90
2023-04-05T04:08:42.760Z,-0.90
2023-04-05T04:11:11.944Z,-1.00
2023-04-05T04:13:41.869Z,-1.10
2023-04-05T04:16:18.530Z,-1.20
2023-04-05T04:19:10.197Z,-1.30
2023-04-05T04:21:51.191Z,-1.30
2023-04-05T04:24:46.815Z,-1.30
2023-04-05T04:27:48.366Z,-1.30
2023-04-05T04:30:47.191Z,-1.30
2023-04-05T04:33:40.326Z,-1.30
2023-04-05T04:36:39.596Z,-1.30
2023-04-05T04:39:31.716Z,-1.40
2023-04-05T04:42:20.393Z,-1.30
2023-04-05T04:45:11.053Z,-1.30
2023-04-05T04:47:48.946Z,-1.30
2023-04-05T04:50:39.252Z,-1.30
2023-04-05T04:53:07.420Z,-1.30
2023-04-05T04:55:36.643Z,-1.30
2023-04-05T04:58:09.804Z,-1.30
2023-04-05T05:00:39.606Z,-1.30
2023-04-05T05:03:11.489Z,-1.30
2023-04-05T05:05:45.569Z,-1.30
2023-04-05T05:08:13.888Z,-1.30
2023-04-05T05:10:43.619Z,-1.30
2023-04-05T05:13:12.374Z,-1.20
2023-04-05T05:15:41.204Z,-1.20
2023-04-05T05:18:10.313Z,-1.20
2023-04-05T05:20:38.878Z,-1.10
2023-04-05T05:23:08.662Z,-1.00
2023-04-05T05:25:38.351Z,-0.90
2023-04-05T05:28:06.838Z,-0.80
2023-04-05T05:30:35.232Z,-0.50
2023-04-05T05:33:03.954Z,0.00
2023-04-05T05:35:32.139Z,0.80
2023-04-05T05:38:01.444Z,1.50
2023-04-05T05:40:31.264Z,2.20
2023-04-05T05:42:59.677Z,2.80
2023-04-05T05:45:28.023Z,3.50
2023-04-05T05:47:57.673Z,4.10
2023-04-05T05:50:25.945Z,4.80
2023-04-05T05:52:54.883Z,5.30
2023-04-05T05:55:22.849Z,5.70
2023-04-05T05:57:54.266Z,5.90
2023-04-05T06:00:22.897Z,6.30
2023-04-05T06:02:51.184Z,6.90
2023-04-05T06:05:19.843Z,7.50
2023-04-05T06:07:48.472Z,7.80
2023-04-05T06:10:16.769Z,8.20
2023-04-05T06:12:44.819Z,8.40
2023-04-05T06:15:14.729Z,8.90
2023-04-05T06:17:42.958Z,9.30
2023-04-05T06:20:12.646Z,10.00
2023-04-05T06:22:41.964Z,10.50
2023-04-05T06:25:12.309Z,10.80
2023-04-05T06:27:40.728Z,11.10
2023-04-05T06:30:10.176Z,11.50
2023-04-05T06:32:40.375Z,11.80
2023-04-05T06:35:09.275Z,12.10
2023-04-05T06:37:37.390Z,12.20
2023-04-05T06:40:06.153Z,12.50
2023-04-05T06:42:34.300Z,12.80
2023-04-05T06:45:06.582Z,13.00
2023-04-05T06:47:34.788Z,13.20
2023-04-05T06:50:04.744Z,14.00
2023-04-05T06:52:34.076Z,14.30
2023-04-05T06:55:02.930Z,14.40
2023-04-05T06:57:31.356Z,14.70
2023-04-05T06:59:59.673Z,15.40
2023-04-05T07:02:27.967Z,14.70
2023-04-05T07:05:00.803Z,14.40
2023-04-05T07:07:30.670Z,13.90
2023-04-05T07:09:59.396Z,14.20
2023-04-05T07:12:28.246Z,14.60
2023-04-05T07:14:57.090Z,14.60
2023-04-05T07:17:25.824Z,14.80
2023-04-05T07:19:54.036Z,14.60
2023-04-05T07:22:22.551Z,14.50
2023-04-05T07:24:52.509Z,14.70
2023-04-05T07:27:20.742Z,15.20
2023-04-05T07:29:49.533Z,15.90
2023-04-05T07:32:18.250Z,15.40
2023-04-05T07:34:47.068Z,14.90
2023-04-05T07:37:18.215Z,14.70
2023-04-05T07:39:46.584Z,15.40
2023-04-05T07:42:22.122Z,16.20
2023-04-05T07:44:50.212Z,16.00
2023-04-05T07:47:18.455Z,16.50
2023-04-05T07:49:47.998Z,16.50
2023-04-05T07:52:16.358Z,16.40
2023-04-05T07:54:45.927Z,17.00
2023-04-05T07:57:22.146Z,16.90
2023-04-05T07:59:50.974Z,16.60
2023-04-05T08:02:20.420Z,16.60
2023-04-05T08:04:48.459Z,16.30
2023-04-05T08:07:16.874Z,16.50
2023-04-05T08:09:45.140Z,16.90
2023-04-05T08:12:13.198Z,17.30
2023-04-05T08:14:43.441Z,17.80
2023-04-05T08:17:11.694Z,18.30
2023-04-05T08:19:40.451Z,18.60
2023-04-05T08:22:08.699Z,19.50
2023-04-05T08:24:37.093Z,20.40
2023-04-05T08:27:05.242Z,20.50
2023-04-05T08:29:33.354Z,21.60
2023-04-05T08:32:03.111Z,22.00
2023-04-05T08:34:31.173Z,22.40
2023-04-05T08:37:00.358Z,22.40
2023-04-05T08:39:28.803Z,22.80
2023-04-05T08:42:01.959Z,23.40
2023-04-05T08:44:35.621Z,24.00
2023-04-05T08:47:07.062Z,24.10
2023-04-05T08:49:35.313Z,24.10
2023-04-05T08:52:04.318Z,24.80
2023-04-05T08:57:19.783Z,26.50
2023-04-05T08:59:48.129Z,26.90
2023-04-05T09:02:19.530Z,26.40
2023-04-05T09:04:48.992Z,26.90
2023-04-05T09:07:17.692Z,27.00
2023-04-05T09:09:51.046Z,27.20
2023-04-05T09:12:21.690Z,26.60
2023-04-05T09:14:50.061Z,26.30
2023-04-05T09:17:20.370Z,26.40
2023-04-05T09:19:50.185Z,26.80
2023-04-05T09:22:19.575Z,26.50
2023-04-05T09:24:49.132Z,26.40
2023-04-05T09:27:21.653Z,27.20
2023-04-05T09:29:56.938Z,27.80
2023-04-05T09:32:28.371Z,27.10
2023-04-05T09:34:56.417Z,27.30
2023-04-05T09:37:33.486Z,27.60
2023-04-05T09:40:04.103Z,28.50
2023-04-05T09:42:35.584Z,29.20
2023-04-05T09:45:05.785Z,29.70
2023-04-05T09:47:42.198Z,30.30
2023-04-05T09:50:19.796Z,31.00
2023-04-05T09:52:49.386Z,30.30
2023-04-05T09:55:27.418Z,30.00
2023-04-05T09:57:56.291Z,29.40
2023-04-05T10:00:24.837Z,29.80
2023-04-05T10:02:57.322Z,30.60
2023-04-05T10:05:27.335Z,30.30
2023-04-05T10:07:56.871Z,30.10
2023-04-05T10:10:26.741Z,30.60
2023-04-05T10:12:55.051Z,30.80
2023-04-05T10:15:25.865Z,31.30
2023-04-05T10:18:00.684Z,31.60
2023-04-05T10:20:29.488Z,31.90
2023-04-05T10:23:10.545Z,31.50
2023-04-05T10:25:45.206Z,30.80
2023-04-05T10:28:18.306Z,30.20
2023-04-05T10:30:49.679Z,31.10
2023-04-05T10:33:22.646Z,31.00
2023-04-05T10:36:11.068Z,30.70
2023-04-05T10:38:44.763Z,30.50
2023-04-05T10:41:14.706Z,30.90
2023-04-05T10:43:43.623Z,30.40
2023-04-05T10:46:12.882Z,30.30
2023-04-05T10:48:46.671Z,30.70
2023-04-05T10:51:15.439Z,30.60
2023-04-05T10:53:46.720Z,30.40
2023-04-05T10:56:15.692Z,30.50
2023-04-05T10:58:45.790Z,30.10
2023-04-05T11:01:17.799Z,30.10
2023-04-05T11:03:51.107Z,29.30
2023-04-05T11:06:20.435Z,30.10
2023-04-05T11:08:49.076Z,31.00
2023-04-05T11:11:18.268Z,31.40
2023-04-05T11:13:51.098Z,31.70
2023-04-05T11:16:19.611Z,31.70
2023-04-05T11:18:48.563Z,31.50
2023-04-05T11:21:25.192Z,31.70
2023-04-05T11:24:06.646Z,31.50
2023-04-05T11:26:35.482Z,31.60
2023-04-05T11:29:03.839Z,31.60
2023-04-05T11:31:32.425Z,31.60
2023-04-05T11:34:10.412Z,32.40
2023-04-05T11:36:42.182Z,31.90
2023-04-05T11:39:29.718Z,30.30
2023-04-05T11:42:00.253Z,28.60
2023-04-05T11:44:28.755Z,28.80
2023-04-05T11:46:57.101Z,29.50
2023-04-05T11:49:26.334Z,29.70
2023-04-05T11:51:57.370Z,29.20
2023-04-05T11:54:34.246Z,29.10
2023-04-05T11:57:04.240Z,30.30
2023-04-05T11:59:33.771Z,31.00
2023-04-05T12:02:02.658Z,31.00
2023-04-05T12:04:38.810Z,30.60
2023-04-05T12:07:15.065Z,28.60
2023-04-05T12:10:01.367Z,27.10
2023-04-05T12:12:29.845Z,26.00
2023-04-05T12:15:01.696Z,25.50
2023-04-05T12:17:43.063Z,26.10
2023-04-05T12:20:12.865Z,26.50
2023-04-05T12:22:43.543Z,27.30
2023-04-05T12:25:11.896Z,26.70
2023-04-05T12:27:56.142Z,26.50
2023-04-05T12:30:25.647Z,26.50
2023-04-05T12:32:54.572Z,26.70
2023-04-05T12:35:24.627Z,26.80
2023-04-05T12:37:58.846Z,26.80
2023-04-05T12:40:30.929Z,26.30
2023-04-05T12:43:05.405Z,27.10
2023-04-05T12:45:40.566Z,27.20
2023-04-05T12:48:10.393Z,26.70
2023-04-05T12:50:43.317Z,26.30
2023-04-05T12:53:20.202Z,26.70
2023-04-05T12:55:52.308Z,27.40
2023-04-05T12:58:21.371Z,28.40
2023-04-05T13:00:49.816Z,28.50
2023-04-05T13:03:21.048Z,29.00
2023-04-05T13:05:49.687Z,29.40
2023-04-05T13:08:20.181Z,30.10
2023-04-05T13:10:49.338Z,30.00
2023-04-05T13:13:20.810Z,29.40
2023-04-05T13:15:51.462Z,29.00
2023-04-05T13:18:20.810Z,28.00
2023-04-05T13:20:48.730Z,27.70
2023-04-05T13:23:16.986Z,27.10
2023-04-05T13:25:46.960Z,26.10
2023-04-05T13:28:17.505Z,25.80
2023-04-05T13:30:45.859Z,25.70
2023-04-05T13:33:15.412Z,26.60
2023-04-05T13:35:44.396Z,27.40
2023-04-05T13:38:17.853Z,27.20
2023-04-05T13:40:47.772Z,27.80
2023-04-05T13:43:18.933Z,27.80
2023-04-05T13:45:47.049Z,26.80
2023-04-05T13:48:15.083Z,26.00
2023-04-05T13:50:44.251Z,25.40
2023-04-05T13:53:12.415Z,25.20
2023-04-05T13:55:41.261Z,24.40
2023-04-05T13:58:11.599Z,24.00
2023-04-05T14:00:40.270Z,24.50
2023-04-05T14:03:08.793Z,25.20
2023-04-05T14:05:37.393Z,25.40
2023-04-05T14:08:06.545Z,25.20
2023-04-05T14:10:34.753Z,25.70
2023-04-05T14:13:03.399Z,26.30
2023-04-05T14:15:34.192Z,26.70
2023-04-05T14:18:03.623Z,27.00
2023-04-05T14:20:33.763Z,26.50
2023-04-05T14:23:02.695Z,25.80
2023-04-05T14:25:31.050Z,26.30
2023-04-05T14:27:59.442Z,26.50
2023-04-05T14:30:28.194Z,26.80
2023-04-05T14:32:57.943Z,27.10
2023-04-05T14:35:26.177Z,27.60
2023-04-05T14:37:54.772Z,27.80
2023-04-05T14:40:23.359Z,27.30
2023-04-05T14:42:51.668Z,26.60
2023-04-05T14:45:20.159Z,26.30
2023-04-05T14:47:48.802Z,26.40
2023-04-05T14:50:18.309Z,26.50
2023-04-05T14:52:46.952Z,26.70
2023-04-05T14:55:15.410Z,27.00
2023-04-05T14:57:43.673Z,26.70
2023-04-05T15:00:12.772Z,26.30
2023-04-05T15:02:41.340Z,26.50
2023-04-05T15:05:10.522Z,25.70
2023-04-05T15:07:40.351Z,25.00
2023-04-05T15:10:09.048Z,24.70
2023-04-05T15:12:37.410Z,23.80
2023-04-05T15:15:06.604Z,23.30
2023-04-05T15:17:34.886Z,22.70
2023-04-05T15:20:03.633Z,21.60
2023-04-05T15:22:32.146Z,21.20
2023-04-05T15:25:02.323Z,21.10
2023-04-05T15:27:31.093Z,21.10
2023-04-05T15:29:59.558Z,20.90
2023-04-05T15:32:28.166Z,20.90
2023-04-05T15:34:56.994Z,21.20
2023-04-05T15:37:25.938Z,21.40
2023-04-05T15:39:54.339Z,21.30
2023-04-05T15:42:24.138Z,21.20
2023-04-05T15:44:52.520Z,21.10
2023-04-05T15:47:21.257Z,20.90
2023-04-05T15:49:51.457Z,20.10
2023-04-05T15:52:19.782Z,19.70
2023-04-05T15:54:48.277Z,19.90
2023-04-05T15:57:16.604Z,20.10
2023-04-05T15:59:46.716Z,20.30
2023-04-05T16:02:15.685Z,20.30
2023-04-05T16:04:44.152Z,20.40
2023-04-05T16:07:12.789Z,20.40
2023-04-05T16:09:41.637Z,20.50
2023-04-05T16:12:09.656Z,20.70
2023-04-05T16:14:38.301Z,20.60
2023-04-05T16:17:08.138Z,20.60
2023-04-05T16:19:37.343Z,20.40
2023-04-05T16:22:06.199Z,20.30
2023-04-05T16:24:36.681Z,20.40
2023-04-05T16:27:05.101Z,20.30
2023-04-05T16:29:33.492Z,20.40
2023-04-05T16:32:01.950Z,20.30
2023-04-05T16:34:31.640Z,20.00
2023-04-05T16:36:59.787Z,19.60
2023-04-05T16:39:28.272Z,19.50
2023-04-05T16:41:57.240Z,19.00
2023-04-05T16:44:27.540Z,18.70
2023-04-05T16:46:56.489Z,18.50
2023-04-05T16:49:24.717Z,18.40
2023-04-05T16:51:54.731Z,18.40
2023-04-05T16:54:22.808Z,18.30
2023-04-05T16:56:51.074Z,18.10
2023-04-05T16:59:19.423Z,17.90
2023-04-05T17:01:48.041Z,17.40
2023-04-05T17:04:16.488Z,17.20
2023-04-05T17:06:45.063Z,17.00
2023-04-05T17:09:16.553Z,16.70
2023-04-05T17:11:45.559Z,16.50
2023-04-05T17:14:13.756Z,16.30
2023-04-05T17:16:42.601Z,16.00
2023-04-05T17:19:10.856Z,15.80
2023-04-05T17:21:38.991Z,15.40
2023-04-05T17:24:08.148Z,15.00
2023-04-05T17:26:37.766Z,14.60
2023-04-05T17:29:06.216Z,14.10
2023-04-05T17:31:34.424Z,13.70
2023-04-05T17:34:02.598Z,13.20
2023-04-05T17:36:31.142Z,12.80
2023-04-05T17:38:59.658Z,12.20
2023-04-05T17:41:28.235Z,11.80
2023-04-05T17:43:58.561Z,11.40
2023-04-05T17:46:40.183Z,11.00
2023-04-05T17:49:11.390Z,10.60
2023-04-05T17:51:39.849Z,10.30
2023-04-05T17:54:08.173Z,10.00
2023-04-05T17:56:36.465Z,9.80
2023-04-05T17:59:07.568Z,9.60
2023-04-05T18:01:37.915Z,9.30
2023-04-05T18:04:07.610Z,9.20
2023-04-05T18:06:37.208Z,9.00
2023-04-05T18:09:05.981Z,8.80
2023-04-05T18:11:34.409Z,8.70
2023-04-05T18:14:02.970Z,8.40
2023-04-05T18:16:32.980Z,8.20
2023-04-05T18:19:01.461Z,8.00
2023-04-05T18:21:29.847Z,7.80
2023-04-05T18:23:58.441Z,7.60
2023-04-05T18:26:26.987Z,7.40
2023-04-05T18:28:59.986Z,7.30
2023-04-05T18:31:28.239Z,7.10
2023-04-05T18:33:57.643Z,7.00
2023-04-05T18:36:27.007Z,7.00
2023-04-05T18:38:55.904Z,6.90
2023-04-05T18:41:24.140Z,6.80
2023-04-05T18:43:54.948Z,6.70
2023-04-05T18:46:23.711Z,6.60
2023-04-05T18:48:54.639Z,6.50
2023-04-05T18:51:25.202Z,6.30
2023-04-05T18:53:53.471Z,6.30
2023-04-05T18:56:22.709Z,6.30
2023-04-05T18:58:52.212Z,6.20
2023-04-05T19:01:20.762Z,6.10
2023-04-05T19:03:50.360Z,6.10
2023-04-05T19:06:19.113Z,6.00
2023-04-05T19:08:49.548Z,5.80
2023-04-05T19:11:18.753Z,5.70
2023-04-05T19:13:47.417Z,5.60
2023-04-05T19:16:17.632Z,5.50
2023-04-05T19:18:47.059Z,5.40
2023-04-05T19:21:15.966Z,5.40
2023-04-05T19:23:46.325Z,5.40
2023-04-05T19:26:16.799Z,5.40
2023-04-05T19:28:44.961Z,5.40
2023-04-05T19:31:13.101Z,5.30
2023-04-05T19:33:42.316Z,5.20
2023-04-05T19:36:11.413Z,5.10
2023-04-05T19:38:40.814Z,5.00
2023-04-05T19:41:09.259Z,5.00
2023-04-05T19:43:41.671Z,4.80
2023-04-05T19:46:11.296Z,4.70
2023-04-05T19:48:41.163Z,4.70
2023-04-05T19:51:10.377Z,4.70
2023-04-05T19:53:43.095Z,4.80
2023-04-05T19:56:13.342Z,4.70
2023-04-05T19:58:44.061Z,4.60
2023-04-05T20:01:13.319Z,4.60
2023-04-05T20:03:42.709Z,4.50
2023-04-05T20:06:11.982Z,4.40
2023-04-05T20:08:41.266Z,4.20
2023-04-05T20:11:11.277Z,4.10
2023-04-05T20:13:56.343Z,3.90
2023-04-05T20:16:28.817Z,3.70
2023-04-05T20:18:58.857Z,3.70
2023-04-05T20:21:27.280Z,3.60
2023-04-05T20:23:55.771Z,3.50
2023-04-05T20:26:27.648Z,3.50
2023-04-05T20:29:01.344Z,3.50
2023-04-05T20:31:32.297Z,3.50
2023-04-05T20:34:04.324Z,3.50
2023-04-05T20:36:33.848Z,3.50
2023-04-05T20:39:03.132Z,3.50
2023-04-05T20:41:31.674Z,3.50
2023-04-05T20:44:02.621Z,3.50
2023-04-05T20:46:31.307Z,3.40
2023-04-05T20:49:00.691Z,3.40
2023-04-05T20:51:29.566Z,3.40
2023-04-05T20:53:58.065Z,3.40
2023-04-05T20:56:27.594Z,3.30
2023-04-05T20:58:56.091Z,3.20
2023-04-05T21:01:27.526Z,3.10
2023-04-05T21:03:56.355Z,3.00
2023-04-05T21:06:24.481Z,3.00
2023-04-05T21:08:53.557Z,3.00
2023-04-05T21:11:21.780Z,2.90
2023-04-05T21:13:50.343Z,2.80
2023-04-05T21:16:18.754Z,2.60
2023-04-05T21:18:51.503Z,2.30
2023-04-05T21:21:19.811Z,2.10
2023-04-05T21:23:49.634Z,1.90
2023-04-05T21:26:18.396Z,1.80
2023-04-05T21:28:49.530Z,1.90
2023-04-05T21:31:18.216Z,2.10
2023-04-05T21:33:46.848Z,2.20
2023-04-05T21:36:17.102Z,2.10
2023-04-05T21:38:45.262Z,2.10
2023-04-05T21:41:13.652Z,2.10
2023-04-05T21:43:42.324Z,2.10
2023-04-05T21:46:11.992Z,2.10
2023-04-05T21:48:40.778Z,2.20
2023-04-05T21:51:09.101Z,2.20
2023-04-05T21:53:38.919Z,2.20
2023-04-05T21:56:07.596Z,2.30
2023-04-05T21:58:35.779Z,2.20
2023-04-05T22:01:04.670Z,2.20
2023-04-05T22:03:33.059Z,2.20
2023-04-05T22:06:02.157Z,2.20
2023-04-05T22:08:30.761Z,2.20
2023-04-05T22:11:00.373Z,2.20
2023-04-05T22:13:29.841Z,2.20
2023-04-05T22:15:58.327Z,2.20
2023-04-05T22:18:29.549Z,2.20
2023-04-05T22:21:00.706Z,2.20
2023-04-05T22:23:30.483Z,2.20
2023-04-05T22:26:03.671Z,2.20
2023-04-05T22:28:43.473Z,2.20
2023-04-05T22:31:14.014Z,2.10
2023-04-05T22:33:45.133Z,2.00
2023-04-05T22:36:13.745Z,2.00
2023-04-05T22:38:43.900Z,2.00
2023-04-05T22:41:16.302Z,2.10
2023-04-05T22:43:45.673Z,2.10
2023-04-05T22:46:15.817Z,2.00
2023-04-05T22:48:45.292Z,2.00
2023-04-05T22:51:15.096Z,1.90
2023-04-05T22:53:50.180Z,1.90
2023-04-05T22:56:21.641Z,1.80
2023-04-05T23:01:46.557Z,1.80
2023-04-05T23:04:26.437Z,1.70
2023-04-05T23:06:56.012Z,1.60
2023-04-05T23:09:25.065Z,1.60
2023-04-05T23:11:57.069Z,1.50
2023-04-05T23:14:27.191Z,1.30
2023-04-05T23:16:57.385Z,1.20
2023-04-05T23:19:26.848Z,1.20
2023-04-05T23:21:55.517Z,1.10
2023-04-05T23:24:28.259Z,1.10
2023-04-05T23:27:00.011Z,0.90
2023-04-05T23:29:40.711Z,0.90
2023-04-05T23:32:13.691Z,0.90
2023-04-05T23:34:45.326Z,0.90
2023-04-05T23:37:13.732Z,0.70
2023-04-05T23:39:45.953Z,0.50
2023-04-05T23:42:31.539Z,0.50
2023-04-05T23:45:29.167Z,0.40
2023-04-05T23:47:58.878Z,0.50
2023-04-05T23:50:29.872Z,0.50
2023-04-05T23:53:05.204Z,0.50
2023-04-05T23:55:40.355Z,0.60
2023-04-05T23:58:10.800Z,0.60
